createdAt,value
2022-09-28T00:02:03.826Z,99259.03
2022-09-28T00:04:50.463Z,99256.56
2022-09-28T00:07:38.700Z,99253.47
2022-09-28T00:10:25.441Z,99254.19
2022-09-28T00:13:13.204Z,99248.94
2022-09-28T00:16:01.450Z,99247.41
2022-09-28T00:18:51.354Z,99245.78
2022-09-28T00:21:39.495Z,99243.09
2022-09-28T00:24:27.920Z,99247.56
2022-09-28T00:27:14.451Z,99252.22
2022-09-28T00:30:01.825Z,99243.78
2022-09-28T00:32:48.666Z,99245.50
2022-09-28T00:35:35.331Z,99242.81
2022-09-28T00:38:22.226Z,99245.50
2022-09-28T00:41:11.744Z,99245.94
2022-09-28T00:44:42.907Z,99241.16
2022-09-28T00:47:43.723Z,99236.91
2022-09-28T00:50:33.248Z,99237.59
2022-09-28T00:53:22.925Z,99234.50
2022-09-28T00:56:15.197Z,99239.19
2022-09-28T00:59:04.824Z,99230.59
2022-09-28T01:01:51.556Z,99235.91
2022-09-28T01:04:39.395Z,99230.34
2022-09-28T01:07:26.715Z,99229.13
2022-09-28T01:10:13.596Z,99236.47
2022-09-28T01:13:01.795Z,99232.31
2022-09-28T01:15:56.791Z,99228.47
2022-09-28T01:18:54.827Z,99229.03
2022-09-28T01:21:52.484Z,99226.47
2022-09-28T01:24:44.089Z,99223.34
2022-09-28T01:27:36.241Z,99229.59
2022-09-28T01:30:23.872Z,99226.53
2022-09-28T01:33:14.195Z,99224.47
2022-09-28T01:36:07.236Z,99225.31
2022-09-28T01:38:57.185Z,99223.47
2022-09-28T01:41:49.504Z,99223.34
2022-09-28T01:44:43.248Z,99227.63
2022-09-28T01:47:36.468Z,99228.16
2022-09-28T01:50:27.258Z,99226.81
2022-09-28T01:53:20.334Z,99223.09
2022-09-28T01:56:13.025Z,99229.16
2022-09-28T01:59:05.314Z,99220.91
2022-09-28T02:01:57.881Z,99215.56
2022-09-28T02:04:49.304Z,99215.06
2022-09-28T02:07:40.313Z,99211.91
2022-09-28T02:10:31.050Z,99219.63
2022-09-28T02:13:22.135Z,99217.34
2022-09-28T02:16:18.456Z,99217.34
2022-09-28T02:19:07.981Z,99213.06
2022-09-28T02:22:00.512Z,99216.69
2022-09-28T02:24:55.075Z,99213.25
2022-09-28T02:27:53.610Z,99211.56
2022-09-28T02:30:43.483Z,99215.03
2022-09-28T02:33:34.287Z,99216.03
2022-09-28T02:36:23.368Z,99210.91
2022-09-28T02:39:14.612Z,99205.22
2022-09-28T02:42:13.287Z,99210.50
2022-09-28T02:45:16.895Z,99208.84
2022-09-28T02:48:15.547Z,99202.66
2022-09-28T02:51:12.569Z,99192.88
2022-09-28T02:54:22.421Z,99206.56
2022-09-28T02:57:19.731Z,99204.94
2022-09-28T03:00:10.366Z,99199.81
2022-09-28T03:03:08.890Z,99193.53
2022-09-28T03:06:01.699Z,99198.88
2022-09-28T03:09:00.407Z,99192.88
2022-09-28T03:11:57.142Z,99190.88
2022-09-28T03:14:43.947Z,99185.03
2022-09-28T03:17:30.803Z,99183.25
2022-09-28T03:20:18.239Z,99159.25
2022-09-28T03:23:23.810Z,99181.63
2022-09-28T03:26:12.766Z,99184.25
2022-09-28T03:29:01.076Z,99192.09
2022-09-28T03:31:49.292Z,99191.38
2022-09-28T03:34:36.726Z,99191.97
2022-09-28T03:37:23.531Z,99182.13
2022-09-28T03:40:11.143Z,99185.97
2022-09-28T03:42:57.653Z,99180.91
2022-09-28T03:45:53.066Z,99175.63
2022-09-28T03:48:41.247Z,99159.66
2022-09-28T03:51:29.696Z,99168.38
2022-09-28T03:54:16.406Z,99162.50
2022-09-28T03:57:03.557Z,99166.00
2022-09-28T03:59:50.150Z,99158.47
2022-09-28T04:02:38.308Z,99153.34
2022-09-28T04:05:25.211Z,99149.66
2022-09-28T04:08:11.875Z,99147.50
2022-09-28T04:10:59.948Z,99148.84
2022-09-28T04:13:49.983Z,99149.25
2022-09-28T04:16:36.884Z,99146.94
2022-09-28T04:19:32.068Z,99149.06
2022-09-28T04:22:33.071Z,99145.97
2022-09-28T04:25:20.468Z,99153.06
2022-09-28T04:28:24.905Z,99151.75
2022-09-28T04:31:13.195Z,99146.88
2022-09-28T04:34:00.061Z,99155.06
2022-09-28T04:36:49.738Z,99150.06
2022-09-28T04:39:38.745Z,99149.41
2022-09-28T04:42:26.522Z,99142.50
2022-09-28T04:45:13.469Z,99140.97
2022-09-28T04:48:07.535Z,99142.00
2022-09-28T04:51:19.120Z,99134.25
2022-09-28T04:54:07.425Z,99131.06
2022-09-28T04:56:54.580Z,99130.28
2022-09-28T04:59:41.058Z,99137.50
2022-09-28T05:02:29.614Z,99135.91
2022-09-28T05:05:35.998Z,99139.47
2022-09-28T05:08:48.456Z,99143.44
2022-09-28T05:11:37.936Z,99152.50
2022-09-28T05:14:29.721Z,99154.31
2022-09-28T05:17:16.537Z,99155.91
2022-09-28T05:20:22.163Z,99156.53
2022-09-28T05:23:11.502Z,99139.22
2022-09-28T05:26:02.280Z,99158.47
2022-09-28T05:28:51.354Z,99152.88
2022-09-28T05:31:44.366Z,99167.09
2022-09-28T05:34:37.102Z,99169.25
2022-09-28T05:37:24.372Z,99162.09
2022-09-28T05:40:12.504Z,99172.63
2022-09-28T05:43:03.064Z,99171.44
2022-09-28T05:45:55.664Z,99170.31
2022-09-28T05:48:42.601Z,99164.91
2022-09-28T05:51:29.395Z,99153.31
2022-09-28T05:54:16.505Z,99152.19
2022-09-28T05:57:07.085Z,99153.34
2022-09-28T05:59:53.757Z,99148.00
2022-09-28T06:02:41.868Z,99149.66
2022-09-28T06:05:32.431Z,99146.88
2022-09-28T06:08:18.953Z,99144.06
2022-09-28T06:11:12.932Z,99144.00
2022-09-28T06:13:59.693Z,99152.41
2022-09-28T06:16:50.158Z,99151.84
2022-09-28T06:19:39.165Z,99151.84
2022-09-28T06:22:44.822Z,99149.56
2022-09-28T06:25:32.272Z,99143.13
2022-09-28T06:28:19.014Z,99140.44
2022-09-28T06:31:06.727Z,99141.06
2022-09-28T06:34:02.229Z,99132.75
2022-09-28T06:36:50.422Z,99131.59
2022-09-28T06:39:37.638Z,99127.81
2022-09-28T06:42:25.498Z,99142.25
2022-09-28T06:45:53.118Z,99129.44
2022-09-28T06:48:45.249Z,99125.09
2022-09-28T06:51:37.813Z,99129.16
2022-09-28T06:54:33.452Z,99131.78
2022-09-28T06:57:22.742Z,99123.31
2022-09-28T07:00:10.707Z,99123.22
2022-09-28T07:02:57.902Z,99126.00
2022-09-28T07:06:02.231Z,99127.06
2022-09-28T07:09:26.969Z,99132.53
2022-09-28T07:12:36.285Z,99130.38
2022-09-28T07:15:33.453Z,99129.03
2022-09-28T07:18:21.628Z,99124.84
2022-09-28T07:21:11.308Z,99138.78
2022-09-28T07:24:02.209Z,99136.91
2022-09-28T07:26:58.039Z,99136.66
2022-09-28T07:30:04.828Z,99134.16
2022-09-28T07:33:06.675Z,99137.56
2022-09-28T07:36:11.844Z,99137.13
2022-09-28T07:38:58.398Z,99136.38
2022-09-28T07:41:46.199Z,99145.66
2022-09-28T07:44:33.857Z,99142.66
2022-09-28T07:47:30.885Z,99138.13
2022-09-28T07:50:54.310Z,99137.69
2022-09-28T07:53:54.230Z,99127.78
2022-09-28T07:56:59.650Z,99126.25
2022-09-28T07:59:58.633Z,99136.44
2022-09-28T08:03:08.165Z,99130.91
2022-09-28T08:05:59.782Z,99135.50
2022-09-28T08:08:46.613Z,99139.66
2022-09-28T08:11:36.285Z,99142.69
2022-09-28T08:14:52.845Z,99134.22
2022-09-28T08:18:01.975Z,99142.50
2022-09-28T08:21:10.699Z,99142.06
2022-09-28T08:23:58.077Z,99132.84
2022-09-28T08:26:45.290Z,99129.00
2022-09-28T08:29:34.962Z,99135.81
2022-09-28T08:32:47.895Z,99142.19
2022-09-28T08:36:08.574Z,99142.41
2022-09-28T08:39:13.989Z,99145.44
2022-09-28T08:42:33.658Z,99144.25
2022-09-28T08:45:43.185Z,99145.59
2022-09-28T08:49:20.576Z,99148.28
2022-09-28T08:52:23.571Z,99141.56
2022-09-28T08:55:39.557Z,99137.41
2022-09-28T08:58:33.199Z,99138.63
2022-09-28T09:01:22.397Z,99137.31
2022-09-28T09:04:10.213Z,99138.00
2022-09-28T09:07:33.949Z,99143.56
2022-09-28T09:10:48.627Z,99143.47
2022-09-28T09:13:53.913Z,99146.31
2022-09-28T09:17:00.387Z,99143.78
2022-09-28T09:20:18.899Z,99143.19
2022-09-28T09:23:20.292Z,99146.97
2022-09-28T09:26:22.085Z,99142.53
2022-09-28T09:29:26.701Z,99147.84
2022-09-28T09:32:31.246Z,99141.88
2022-09-28T09:35:33.395Z,99142.34
2022-09-28T09:38:53.617Z,99142.13
2022-09-28T09:42:37.060Z,99141.41
2022-09-28T09:45:56.842Z,99137.44
2022-09-28T09:49:02.883Z,99140.81
2022-09-28T09:51:57.562Z,99143.81
2022-09-28T09:54:52.364Z,99135.94
2022-09-28T09:58:16.983Z,99136.78
2022-09-28T10:01:10.312Z,99110.81
2022-09-28T10:04:22.207Z,99137.75
2022-09-28T10:07:17.501Z,99132.66
2022-09-28T10:10:13.539Z,99139.97
2022-09-28T10:13:06.251Z,99140.34
2022-09-28T10:15:53.057Z,99140.53
2022-09-28T10:18:54.073Z,99146.63
2022-09-28T10:22:02.735Z,99139.81
2022-09-28T10:24:57.654Z,99144.41
2022-09-28T10:27:49.506Z,99141.53
2022-09-28T10:30:44.671Z,99143.97
2022-09-28T10:33:34.062Z,99146.47
2022-09-28T10:36:21.477Z,99143.34
2022-09-28T10:39:31.179Z,99142.28
2022-09-28T10:42:23.917Z,99146.16
2022-09-28T10:45:22.402Z,99150.78
2022-09-28T10:48:19.498Z,99145.16
2022-09-28T10:51:08.836Z,99147.34
2022-09-28T10:54:01.869Z,99144.16
2022-09-28T10:57:04.231Z,99146.84
2022-09-28T11:00:32.775Z,99142.50
2022-09-28T11:03:33.327Z,99139.22
2022-09-28T11:06:28.193Z,99133.22
2022-09-28T11:09:30.841Z,99113.16
2022-09-28T11:12:24.066Z,99132.03
2022-09-28T11:15:18.928Z,99125.94
2022-09-28T11:18:25.804Z,99124.81
2022-09-28T11:21:16.218Z,99134.22
2022-09-28T11:24:24.588Z,99132.06
2022-09-28T11:27:22.122Z,99122.53
2022-09-28T11:30:24.898Z,99127.03
2022-09-28T11:33:38.508Z,99128.28
2022-09-28T11:37:28.049Z,99136.06
2022-09-28T11:40:27.832Z,99129.03
2022-09-28T11:43:23.183Z,99132.72
2022-09-28T11:46:16.840Z,99126.38
2022-09-28T11:49:12.410Z,99123.50
2022-09-28T11:52:04.404Z,99130.81
2022-09-28T11:54:57.095Z,99129.75
2022-09-28T11:57:49.392Z,99129.00
2022-09-28T12:00:43.370Z,99128.34
2022-09-28T12:03:40.669Z,99123.53
2022-09-28T12:06:34.192Z,99125.44
2022-09-28T12:09:28.715Z,99123.78
2022-09-28T12:12:33.544Z,99125.91
2022-09-28T12:15:34.915Z,99125.97
2022-09-28T12:18:34.742Z,99127.09
2022-09-28T12:21:38.645Z,99128.16
2022-09-28T12:24:29.931Z,99126.25
2022-09-28T12:27:24.344Z,99128.88
2022-09-28T12:30:16.603Z,99129.09
2022-09-28T12:33:06.532Z,99133.81
2022-09-28T12:36:13.277Z,99131.06
2022-09-28T12:39:40.844Z,99129.38
2022-09-28T12:42:47.162Z,99124.50
2022-09-28T12:46:11.373Z,99125.66
2022-09-28T12:53:03.268Z,99131.44
2022-09-28T12:56:00.709Z,99133.13
2022-09-28T12:59:01.125Z,99130.00
2022-09-28T13:02:04.915Z,99131.31
2022-09-28T13:05:17.461Z,99136.53
2022-09-28T13:08:11.587Z,99134.06
2022-09-28T13:11:11.034Z,99139.28
2022-09-28T13:14:15.883Z,99132.47
2022-09-28T13:17:15.069Z,99139.41
2022-09-28T13:20:16.069Z,99143.56
2022-09-28T13:23:15.750Z,99134.50
2022-09-28T13:26:14.036Z,99120.00
2022-09-28T13:29:05.010Z,99136.72
2022-09-28T13:31:56.051Z,99138.47
2022-09-28T13:34:42.846Z,99142.59
2022-09-28T13:37:30.510Z,99136.00
2022-09-28T13:40:17.489Z,99149.31
2022-09-28T13:43:19.847Z,99144.25
2022-09-28T13:46:14.145Z,99139.91
2022-09-28T13:49:12.417Z,99149.25
2022-09-28T13:52:05.991Z,99146.00
2022-09-28T13:55:04.239Z,99159.81
2022-09-28T13:57:57.106Z,99159.34
2022-09-28T14:00:51.399Z,99160.66
2022-09-28T14:03:54.423Z,99147.19
2022-09-28T14:06:48.118Z,99162.13
2022-09-28T14:09:46.846Z,99166.34
2022-09-28T14:12:47.931Z,99172.78
2022-09-28T14:15:47.034Z,99173.13
2022-09-28T14:18:35.272Z,99176.06
2022-09-28T14:21:42.843Z,99177.94
2022-09-28T14:24:46.092Z,99176.63
2022-09-28T14:27:55.596Z,99181.88
2022-09-28T14:30:53.222Z,99178.72
2022-09-28T14:33:42.798Z,99192.44
2022-09-28T14:36:52.769Z,99185.31
2022-09-28T14:39:57.124Z,99192.94
2022-09-28T14:43:28.728Z,99196.72
2022-09-28T14:46:38.491Z,99200.13
2022-09-28T14:49:44.969Z,99202.41
2022-09-28T14:52:46.425Z,99213.22
2022-09-28T14:55:35.893Z,99209.19
2022-09-28T14:58:25.787Z,99207.66
2022-09-28T15:01:21.299Z,99197.44
2022-09-28T15:04:12.760Z,99203.75
2022-09-28T15:07:00.980Z,99195.22
2022-09-28T15:09:49.687Z,99208.47
2022-09-28T15:12:36.753Z,99213.97
2022-09-28T15:15:34.605Z,99218.19
2022-09-28T15:18:48.591Z,99219.91
2022-09-28T15:21:37.736Z,99192.00
2022-09-28T15:24:32.840Z,99224.53
2022-09-28T15:27:19.326Z,99224.41
2022-09-28T15:30:23.059Z,99227.50
2022-09-28T15:33:43.085Z,99224.63
2022-09-28T15:36:34.671Z,99227.13
2022-09-28T15:39:25.608Z,99230.03
2022-09-28T15:42:12.677Z,99228.78
2022-09-28T15:45:08.226Z,99229.09
2022-09-28T15:48:03.705Z,99236.78
2022-09-28T15:51:01.393Z,99230.56
2022-09-28T15:53:58.290Z,99230.53
2022-09-28T15:56:53.734Z,99236.06
2022-09-28T15:59:43.971Z,99242.06
2022-09-28T16:02:31.209Z,99238.41
2022-09-28T16:05:35.817Z,99249.41
2022-09-28T16:08:25.609Z,99253.13
2022-09-28T16:11:20.043Z,99252.53
2022-09-28T16:14:15.628Z,99244.97
2022-09-28T16:17:04.159Z,99247.06
2022-09-28T16:19:51.064Z,99257.72
2022-09-28T16:22:37.776Z,99248.31
2022-09-28T16:25:27.888Z,99255.22
2022-09-28T16:28:46.094Z,99261.66
2022-09-28T16:31:34.800Z,99263.75
2022-09-28T16:34:25.362Z,99271.91
2022-09-28T16:37:31.665Z,99267.00
2022-09-28T16:40:18.569Z,99269.78
2022-09-28T16:43:07.955Z,99269.06
2022-09-28T16:45:58.181Z,99270.16
2022-09-28T16:48:48.658Z,99276.34
2022-09-28T16:51:35.512Z,99276.56
2022-09-28T16:54:41.560Z,99278.28
2022-09-28T16:57:28.339Z,99282.50
2022-09-28T17:00:19.809Z,99279.84
2022-09-28T17:03:15.279Z,99284.19
2022-09-28T17:06:04.480Z,99292.19
2022-09-28T17:08:51.211Z,99294.84
2022-09-28T17:11:38.349Z,99296.63
2022-09-28T17:14:25.638Z,99294.06
2022-09-28T17:17:16.881Z,99302.81
2022-09-28T17:20:17.473Z,99300.19
2022-09-28T17:23:04.370Z,99308.88
2022-09-28T17:25:50.995Z,99305.41
2022-09-28T17:28:37.904Z,99308.03
2022-09-28T17:31:24.405Z,99299.25
2022-09-28T17:34:12.808Z,99301.03
2022-09-28T17:37:00.713Z,99306.31
2022-09-28T17:39:47.401Z,99308.03
2022-09-28T17:42:34.292Z,99310.81
2022-09-28T17:45:21.067Z,99311.81
2022-09-28T17:48:09.155Z,99304.97
2022-09-28T17:50:55.734Z,99314.47
2022-09-28T17:53:43.971Z,99320.59
2022-09-28T17:56:32.639Z,99318.75
2022-09-28T17:59:19.742Z,99316.25
2022-09-28T18:02:10.875Z,99318.09
2022-09-28T18:04:57.659Z,99316.16
2022-09-28T18:07:47.716Z,99321.53
2022-09-28T18:10:36.303Z,99325.88
2022-09-28T18:13:23.488Z,99328.50
2022-09-28T18:16:10.763Z,99323.31
2022-09-28T18:18:57.727Z,99333.88
2022-09-28T18:21:44.435Z,99335.72
2022-09-28T18:24:32.658Z,99341.00
2022-09-28T18:27:21.085Z,99342.50
2022-09-28T18:30:09.014Z,99350.34
2022-09-28T18:32:56.021Z,99352.00
2022-09-28T18:35:51.456Z,99350.34
2022-09-28T18:38:38.541Z,99357.19
2022-09-28T18:41:25.405Z,99355.19
2022-09-28T18:44:13.622Z,99357.75
2022-09-28T18:47:02.421Z,99361.41
2022-09-28T18:49:51.056Z,99358.75
2022-09-28T18:52:38.281Z,99364.25
2022-09-28T18:55:24.912Z,99369.81
2022-09-28T18:58:12.914Z,99373.03
2022-09-28T19:01:27.993Z,99371.81
2022-09-28T19:04:09.787Z,99377.38
2022-09-28T19:06:56.633Z,99370.59
2022-09-28T19:09:44.299Z,99372.66
2022-09-28T19:12:31.104Z,99379.81
2022-09-28T19:15:18.640Z,99382.72
2022-09-28T19:18:07.005Z,99382.13
2022-09-28T19:20:54.608Z,99382.38
2022-09-28T19:23:44.797Z,99377.44
2022-09-28T19:26:35.637Z,99385.66
2022-09-28T19:29:22.752Z,99382.34
2022-09-28T19:32:09.422Z,99394.88
2022-09-28T19:34:57.726Z,99397.69
2022-09-28T19:37:46.777Z,99392.69
2022-09-28T19:40:33.214Z,99397.22
2022-09-28T19:43:21.437Z,99397.31
2022-09-28T19:46:08.576Z,99398.56
2022-09-28T19:48:56.652Z,99402.19
2022-09-28T19:52:08.502Z,99401.44
2022-09-28T19:54:56.787Z,99400.72
2022-09-28T19:57:46.450Z,99411.28
2022-09-28T20:00:33.373Z,99409.34
2022-09-28T20:03:20.053Z,99404.88
2022-09-28T20:06:07.543Z,99411.81
2022-09-28T20:08:55.894Z,99418.78
2022-09-28T20:11:42.856Z,99420.56
2022-09-28T20:14:33.138Z,99414.50
2022-09-28T20:17:22.856Z,99419.84
2022-09-28T20:20:09.949Z,99422.75
2022-09-28T20:22:56.770Z,99426.44
2022-09-28T20:25:44.827Z,99431.03
2022-09-28T20:28:31.936Z,99428.72
2022-09-28T20:31:21.551Z,99432.44
2022-09-28T20:34:08.323Z,99435.38
2022-09-28T20:36:54.731Z,99438.25
2022-09-28T20:39:44.798Z,99432.44
2022-09-28T20:42:33.181Z,99433.72
2022-09-28T20:45:20.188Z,99442.66
2022-09-28T20:48:07.447Z,99436.53
2022-09-28T20:51:02.972Z,99436.72
2022-09-28T20:53:51.606Z,99441.13
2022-09-28T20:56:39.045Z,99448.06
2022-09-28T20:59:27.816Z,99439.28
2022-09-28T21:02:16.573Z,99446.22
2022-09-28T21:05:03.044Z,99444.25
2022-09-28T21:07:49.725Z,99446.78
2022-09-28T21:10:36.600Z,99453.50
2022-09-28T21:13:24.113Z,99456.59
2022-09-28T21:16:12.697Z,99460.25
2022-09-28T21:18:59.993Z,99443.84
2022-09-28T21:21:46.933Z,99463.50
2022-09-28T21:24:33.598Z,99459.16
2022-09-28T21:27:20.402Z,99466.06
2022-09-28T21:30:09.306Z,99466.06
2022-09-28T21:32:57.309Z,99471.63
2022-09-28T21:35:44.058Z,99471.16
2022-09-28T21:38:31.225Z,99470.44
2022-09-28T21:41:18.085Z,99476.75
2022-09-28T21:44:04.525Z,99481.09
2022-09-28T21:46:51.274Z,99474.03
2022-09-28T21:49:39.453Z,99480.91
2022-09-28T21:52:26.208Z,99482.69
2022-09-28T21:55:13.105Z,99486.06
2022-09-28T21:57:59.764Z,99494.81
2022-09-28T22:00:46.407Z,99493.69
2022-09-28T22:03:34.881Z,99490.00
2022-09-28T22:06:28.065Z,99496.00
2022-09-28T22:09:15.241Z,99494.16
2022-09-28T22:12:02.437Z,99494.84
2022-09-28T22:14:50.263Z,99490.50
2022-09-28T22:17:36.979Z,99490.38
2022-09-28T22:20:23.813Z,99486.81
2022-09-28T22:23:12.635Z,99490.13
2022-09-28T22:26:00.558Z,99493.47
2022-09-28T22:28:48.743Z,99499.53
2022-09-28T22:31:38.230Z,99491.56
2022-09-28T22:34:24.783Z,99503.72
2022-09-28T22:37:11.306Z,99504.56
2022-09-28T22:40:00.785Z,99500.94
2022-09-28T22:42:47.473Z,99503.53
2022-09-28T22:45:34.028Z,99503.59
2022-09-28T22:48:21.294Z,99506.22
2022-09-28T22:51:08.408Z,99501.88
2022-09-28T22:53:54.961Z,99510.63
2022-09-28T22:56:52.698Z,99502.91
2022-09-28T22:59:42.073Z,99495.22
2022-09-28T23:02:30.198Z,99513.94
2022-09-28T23:05:18.444Z,99508.72
2022-09-28T23:08:05.343Z,99507.88
2022-09-28T23:10:53.725Z,99515.13
2022-09-28T23:13:44.156Z,99508.00
2022-09-28T23:16:31.904Z,99515.84
2022-09-28T23:19:20.100Z,99510.50
2022-09-28T23:22:08.816Z,99512.28
2022-09-28T23:24:57.773Z,99515.78
2022-09-28T23:27:49.328Z,99508.59
2022-09-28T23:30:40.315Z,99508.59
2022-09-28T23:33:29.308Z,99505.41
2022-09-28T23:36:19.353Z,99509.97
2022-09-28T23:39:12.301Z,99503.06
2022-09-28T23:42:06.406Z,99508.34
2022-09-28T23:45:00.088Z,99510.06
2022-09-28T23:47:49.944Z,99508.34
2022-09-28T23:50:42.104Z,99507.44
2022-09-28T23:53:36.420Z,99509.22
2022-09-28T23:56:28.806Z,99511.75
2022-09-28T23:59:20.146Z,99507.44
